Mackay, Australia
Current Conditions -  °F | °C
As of 10:00 PM on Friday 24 Oct 2014 (Local Time) from YBMK Reporting Station
Broken Clouds Broken Clouds  
Wind Chill: 72°   Ceiling: 3400
Heat Index: 72°   Visibility: 6mi
Dew Point: 63°   Wind: 9mph
Humidity: 73%   Direction: 110°ESE
Pressure: 30.15"   Gusts: NA
Location:  21.14°S, 149.19°E
Report Text: YBMK 241200Z AUTO 11008KT 9999 // SCT027 BKN034 22/17 Q1021
Loading
Personal Weather Stations






























Interactive Weather Map
Tropical Storm Tracking
New forecast layout! Learn more

10-Day Weather Forecast

Advertisements
Track Severe Weather on mobile